sensor_id;sensor_type;location;lat;lon;timestamp;pressure;altitude;pressure_sealevel;temperature;humidity
49583;BME280;36329;48.816;44.624;2022-08-21T00:00:54;101580;;;21.9;23.6
49583;BME280;36329;48.816;44.624;2022-08-21T00:03:57;101581;;;22;23.7
49583;BME280;36329;48.816;44.624;2022-08-21T00:06:58;101581;;;21.9;23.9
49583;BME280;36329;48.816;44.624;2022-08-21T00:10:00;101571;;;22;24.1
49583;BME280;36329;48.816;44.624;2022-08-21T00:13:03;101578;;;21.9;24.3
49583;BME280;36329;48.816;44.624;2022-08-21T00:16:04;101583;;;21.8;24.5
49583;BME280;36329;48.816;44.624;2022-08-21T00:19:06;101586;;;21.8;24.6
49583;BME280;36329;48.816;44.624;2022-08-21T00:22:08;101588;;;21.7;24.5
49583;BME280;36329;48.816;44.624;2022-08-21T00:25:11;101581;;;21.6;24.4
49583;BME280;36329;48.816;44.624;2022-08-21T00:28:14;101581;;;21.6;24.5
49583;BME280;36329;48.816;44.624;2022-08-21T00:31:21;101581;;;21.6;24.3
49583;BME280;36329;48.816;44.624;2022-08-21T00:34:23;101571;;;21.6;24.1
49583;BME280;36329;48.816;44.624;2022-08-21T00:37:24;101569;;;21.5;24.1
49583;BME280;36329;48.816;44.624;2022-08-21T00:40:34;101565;;;21.5;24.3
49583;BME280;36329;48.816;44.624;2022-08-21T00:43:39;101557;;;21.5;24.3
49583;BME280;36329;48.816;44.624;2022-08-21T00:46:46;101547;;;21.5;24.5
49583;BME280;36329;48.816;44.624;2022-08-21T00:49:48;101549;;;21.5;24.5
49583;BME280;36329;48.816;44.624;2022-08-21T00:53:01;101545;;;21.5;24.7
49583;BME280;36329;48.816;44.624;2022-08-21T00:56:07;101545;;;21.4;24.2
49583;BME280;36329;48.816;44.624;2022-08-21T00:59:10;101548;;;21.5;24.2
49583;BME280;36329;48.816;44.624;2022-08-21T01:02:12;101550;;;21.4;24.5
49583;BME280;36329;48.816;44.624;2022-08-21T01:05:14;101562;;;21.4;24.2
49583;BME280;36329;48.816;44.624;2022-08-21T01:08:17;101546;;;21.5;24.5
49583;BME280;36329;48.816;44.624;2022-08-21T01:11:20;101545;;;21.5;24.3
49583;BME280;36329;48.816;44.624;2022-08-21T01:14:21;101544;;;21.4;24.3
49583;BME280;36329;48.816;44.624;2022-08-21T01:17:23;101552;;;21.5;24
49583;BME280;36329;48.816;44.624;2022-08-21T01:20:25;101557;;;21.5;24.2
49583;BME280;36329;48.816;44.624;2022-08-21T01:23:27;101556;;;21.3;24.4
49583;BME280;36329;48.816;44.624;2022-08-21T01:26:31;101557;;;21.4;24.4
49583;BME280;36329;48.816;44.624;2022-08-21T01:29:43;101558;;;21.4;24.3
49583;BME280;36329;48.816;44.624;2022-08-21T01:32:46;101563;;;21.4;24.6
49583;BME280;36329;48.816;44.624;2022-08-21T01:35:48;101563;;;21.3;23.8
49583;BME280;36329;48.816;44.624;2022-08-21T01:38:50;101568;;;21.3;24.2
49583;BME280;36329;48.816;44.624;2022-08-21T01:41:52;101565;;;21.3;24.6
49583;BME280;36329;48.816;44.624;2022-08-21T01:44:54;101571;;;21.3;24.7
49583;BME280;36329;48.816;44.624;2022-08-21T01:47:56;101570;;;21.3;24.7
49583;BME280;36329;48.816;44.624;2022-08-21T01:50:58;101576;;;21.3;24.8
49583;BME280;36329;48.816;44.624;2022-08-21T01:54:00;101569;;;21.3;24.8
49583;BME280;36329;48.816;44.624;2022-08-21T01:57:07;101559;;;21.2;24.9
49583;BME280;36329;48.816;44.624;2022-08-21T02:00:18;101565;;;21.3;24.8
49583;BME280;36329;48.816;44.624;2022-08-21T02:03:20;101572;;;21.3;24.4
49583;BME280;36329;48.816;44.624;2022-08-21T02:06:27;101571;;;21.3;24.8
49583;BME280;36329;48.816;44.624;2022-08-21T02:09:34;101581;;;21.2;24.6
49583;BME280;36329;48.816;44.624;2022-08-21T02:12:36;101574;;;21.2;25.5
49583;BME280;36329;48.816;44.624;2022-08-21T02:15:43;101581;;;21.2;26.1
49583;BME280;36329;48.816;44.624;2022-08-21T02:18:45;101578;;;21;26.9
49583;BME280;36329;48.816;44.624;2022-08-21T02:21:48;101578;;;21;26.7
49583;BME280;36329;48.816;44.624;2022-08-21T02:24:50;101578;;;20.9;26.7
49583;BME280;36329;48.816;44.624;2022-08-21T02:27:59;101579;;;20.9;26.9
49583;BME280;36329;48.816;44.624;2022-08-21T02:31:02;101580;;;20.9;27.1
49583;BME280;36329;48.816;44.624;2022-08-21T02:34:04;101583;;;20.9;27.1
49583;BME280;36329;48.816;44.624;2022-08-21T02:37:05;101579;;;21;26.8
49583;BME280;36329;48.816;44.624;2022-08-21T02:40:08;101584;;;20.9;27.1
49583;BME280;36329;48.816;44.624;2022-08-21T02:43:09;101591;;;21;27.4
49583;BME280;36329;48.816;44.624;2022-08-21T02:46:14;101591;;;20.9;27.2
49583;BME280;36329;48.816;44.624;2022-08-21T02:49:16;101600;;;21;27.3
49583;BME280;36329;48.816;44.624;2022-08-21T02:52:17;101596;;;21.1;26.9
49583;BME280;36329;48.816;44.624;2022-08-21T02:55:19;101599;;;21.1;26.5
49583;BME280;36329;48.816;44.624;2022-08-21T02:58:29;101604;;;21.2;26.9
49583;BME280;36329;48.816;44.624;2022-08-21T03:01:33;101597;;;21.2;27
49583;BME280;36329;48.816;44.624;2022-08-21T03:04:41;101606;;;21.3;26.8
49583;BME280;36329;48.816;44.624;2022-08-21T03:07:48;101597;;;21.3;26.8
49583;BME280;36329;48.816;44.624;2022-08-21T03:11:06;101607;;;21.3;27.5
49583;BME280;36329;48.816;44.624;2022-08-21T03:14:08;101605;;;21.4;27.4
49583;BME280;36329;48.816;44.624;2022-08-21T03:17:10;101612;;;21.5;28
49583;BME280;36329;48.816;44.624;2022-08-21T03:20:12;101611;;;21.5;27.7
49583;BME280;36329;48.816;44.624;2022-08-21T03:23:17;101609;;;21.4;27.3
49583;BME280;36329;48.816;44.624;2022-08-21T03:26:24;101604;;;21.5;26.9
49583;BME280;36329;48.816;44.624;2022-08-21T03:29:26;101621;;;21.5;28.2
49583;BME280;36329;48.816;44.624;2022-08-21T03:32:27;101619;;;21.6;28.2
49583;BME280;36329;48.816;44.624;2022-08-21T03:35:29;101622;;;21.7;27.6
49583;BME280;36329;48.816;44.624;2022-08-21T03:38:37;101625;;;21.7;28.1
49583;BME280;36329;48.816;44.624;2022-08-21T03:41:39;101620;;;21.7;28
49583;BME280;36329;48.816;44.624;2022-08-21T03:44:40;101617;;;21.9;27.5
49583;BME280;36329;48.816;44.624;2022-08-21T03:47:50;101611;;;22;27
49583;BME280;36329;48.816;44.624;2022-08-21T03:50:53;101621;;;22;26.6
49583;BME280;36329;48.816;44.624;2022-08-21T03:53:59;101620;;;22;26.4
49583;BME280;36329;48.816;44.624;2022-08-21T03:57:07;101617;;;22.1;26.4
49583;BME280;36329;48.816;44.624;2022-08-21T04:00:11;101611;;;21.9;26.2
49583;BME280;36329;48.816;44.624;2022-08-21T04:03:18;101613;;;22.2;26.1
49583;BME280;36329;48.816;44.624;2022-08-21T04:06:20;101614;;;22.1;26.2
49583;BME280;36329;48.816;44.624;2022-08-21T04:09:23;101617;;;22.4;26
49583;BME280;36329;48.816;44.624;2022-08-21T04:12:24;101605;;;22.4;26.2
49583;BME280;36329;48.816;44.624;2022-08-21T04:15:26;101607;;;22.3;25.9
49583;BME280;36329;48.816;44.624;2022-08-21T04:18:33;101612;;;22.6;25.5
49583;BME280;36329;48.816;44.624;2022-08-21T04:21:35;101615;;;22.7;25.8
49583;BME280;36329;48.816;44.624;2022-08-21T04:24:43;101606;;;23.2;25.6
49583;BME280;36329;48.816;44.624;2022-08-21T04:27:51;101612;;;23.2;26.1
49583;BME280;36329;48.816;44.624;2022-08-21T04:30:58;101611;;;23.1;26.2
49583;BME280;36329;48.816;44.624;2022-08-21T04:33:59;101610;;;23.4;26
49583;BME280;36329;48.816;44.624;2022-08-21T04:37:01;101609;;;23.6;25.7
49583;BME280;36329;48.816;44.624;2022-08-21T04:40:04;101609;;;23.8;25.3
49583;BME280;36329;48.816;44.624;2022-08-21T04:43:09;101605;;;23.9;25.5
49583;BME280;36329;48.816;44.624;2022-08-21T04:46:10;101605;;;24.1;25.2
49583;BME280;36329;48.816;44.624;2022-08-21T04:49:17;101610;;;24.5;25
49583;BME280;36329;48.816;44.624;2022-08-21T04:52:21;101608;;;24.7;25
49583;BME280;36329;48.816;44.624;2022-08-21T04:55:24;101606;;;24.6;25.4
49583;BME280;36329;48.816;44.624;2022-08-21T04:58:26;101598;;;24.8;24.9
49583;BME280;36329;48.816;44.624;2022-08-21T05:01:40;101589;;;24.8;24.7
49583;BME280;36329;48.816;44.624;2022-08-21T05:04:52;101591;;;24.8;24.3
49583;BME280;36329;48.816;44.624;2022-08-21T05:07:57;101591;;;24.8;24.4
49583;BME280;36329;48.816;44.624;2022-08-21T05:11:00;101607;;;25;24.3
49583;BME280;36329;48.816;44.624;2022-08-21T05:14:03;101598;;;24.9;23.8
49583;BME280;36329;48.816;44.624;2022-08-21T05:17:05;101599;;;25.1;24.4
49583;BME280;36329;48.816;44.624;2022-08-21T05:20:07;101602;;;25.2;23.7
49583;BME280;36329;48.816;44.624;2022-08-21T05:23:11;101600;;;24.9;23.6
49583;BME280;36329;48.816;44.624;2022-08-21T05:26:13;101603;;;25.2;24.2
49583;BME280;36329;48.816;44.624;2022-08-21T05:29:15;101605;;;25.3;24.1
49583;BME280;36329;48.816;44.624;2022-08-21T05:32:17;101599;;;25.3;23.5
49583;BME280;36329;48.816;44.624;2022-08-21T05:35:30;101603;;;25.7;23.4
49583;BME280;36329;48.816;44.624;2022-08-21T05:38:33;101611;;;26;23.3
49583;BME280;36329;48.816;44.624;2022-08-21T05:41:45;101602;;;26.3;23.5
49583;BME280;36329;48.816;44.624;2022-08-21T05:44:52;101602;;;26.4;23.4
49583;BME280;36329;48.816;44.624;2022-08-21T05:47:53;101599;;;26.9;23.7
49583;BME280;36329;48.816;44.624;2022-08-21T05:50:55;101609;;;26.7;22.5
49583;BME280;36329;48.816;44.624;2022-08-21T05:54:02;101602;;;26.6;22.3
49583;BME280;36329;48.816;44.624;2022-08-21T05:57:04;101610;;;26.8;22.8
49583;BME280;36329;48.816;44.624;2022-08-21T06:00:07;101604;;;26.8;22.7
49583;BME280;36329;48.816;44.624;2022-08-21T06:03:10;101607;;;27.1;22.1
49583;BME280;36329;48.816;44.624;2022-08-21T06:06:22;101602;;;27.3;22.4
49583;BME280;36329;48.816;44.624;2022-08-21T06:09:24;101597;;;27.4;22.6
49583;BME280;36329;48.816;44.624;2022-08-21T06:12:26;101596;;;27;22.7
49583;BME280;36329;48.816;44.624;2022-08-21T06:15:32;101590;;;27;23.2
49583;BME280;36329;48.816;44.624;2022-08-21T06:18:36;101591;;;27.3;23.1
49583;BME280;36329;48.816;44.624;2022-08-21T06:21:42;101590;;;27.5;23.7
49583;BME280;36329;48.816;44.624;2022-08-21T06:24:44;101606;;;27.4;23.1
49583;BME280;36329;48.816;44.624;2022-08-21T06:27:46;101609;;;27.4;22.4
49583;BME280;36329;48.816;44.624;2022-08-21T06:30:47;101596;;;27.4;23.2
49583;BME280;36329;48.816;44.624;2022-08-21T06:33:50;101585;;;27.5;23
49583;BME280;36329;48.816;44.624;2022-08-21T06:36:52;101588;;;27.9;22.7
49583;BME280;36329;48.816;44.624;2022-08-21T06:39:53;101579;;;28.1;22.4
49583;BME280;36329;48.816;44.624;2022-08-21T06:42:55;101584;;;27.8;23.4
49583;BME280;36329;48.816;44.624;2022-08-21T06:45:57;101587;;;28.2;23.4
49583;BME280;36329;48.816;44.624;2022-08-21T06:49:04;101581;;;28.4;22.5
49583;BME280;36329;48.816;44.624;2022-08-21T06:52:08;101586;;;28.5;22.8
49583;BME280;36329;48.816;44.624;2022-08-21T06:55:15;101580;;;28.5;21.9
49583;BME280;36329;48.816;44.624;2022-08-21T06:58:22;101566;;;28.4;21.1
49583;BME280;36329;48.816;44.624;2022-08-21T07:01:26;101578;;;28.4;21.6
49583;BME280;36329;48.816;44.624;2022-08-21T07:04:27;101567;;;28.5;22.3
49583;BME280;36329;48.816;44.624;2022-08-21T07:07:34;101567;;;28.6;21.6
49583;BME280;36329;48.816;44.624;2022-08-21T07:10:41;101550;;;28.8;21.3
49583;BME280;36329;48.816;44.624;2022-08-21T07:13:49;101550;;;28.9;21.4
49583;BME280;36329;48.816;44.624;2022-08-21T07:16:51;101558;;;29;20.8
49583;BME280;36329;48.816;44.624;2022-08-21T07:19:53;101555;;;29;21.8
49583;BME280;36329;48.816;44.624;2022-08-21T07:23:02;101545;;;28.9;21
49583;BME280;36329;48.816;44.624;2022-08-21T07:26:05;101549;;;29.3;20.5
49583;BME280;36329;48.816;44.624;2022-08-21T07:29:07;101549;;;30.3;19.9
49583;BME280;36329;48.816;44.624;2022-08-21T07:32:09;101554;;;29.9;19.8
49583;BME280;36329;48.816;44.624;2022-08-21T07:35:12;101544;;;29.5;20.9
49583;BME280;36329;48.816;44.624;2022-08-21T07:38:19;101536;;;29.4;20
49583;BME280;36329;48.816;44.624;2022-08-21T07:41:24;101555;;;29.1;21.1
49583;BME280;36329;48.816;44.624;2022-08-21T07:44:31;101541;;;29.5;21.4
49583;BME280;36329;48.816;44.624;2022-08-21T07:47:33;101529;;;29.5;21.4
49583;BME280;36329;48.816;44.624;2022-08-21T07:50:35;101528;;;29.4;21
49583;BME280;36329;48.816;44.624;2022-08-21T07:53:38;101527;;;29.6;20.3
49583;BME280;36329;48.816;44.624;2022-08-21T07:56:39;101534;;;29.5;20.2
49583;BME280;36329;48.816;44.624;2022-08-21T07:59:41;101517;;;29.6;20.8
49583;BME280;36329;48.816;44.624;2022-08-21T08:02:50;101524;;;29.8;21
49583;BME280;36329;48.816;44.624;2022-08-21T08:05:53;101516;;;30.4;20.5
49583;BME280;36329;48.816;44.624;2022-08-21T08:08:55;101516;;;30.6;20.7
49583;BME280;36329;48.816;44.624;2022-08-21T08:11:56;101509;;;30.1;21
49583;BME280;36329;48.816;44.624;2022-08-21T08:14:59;101519;;;30.8;20.4
49583;BME280;36329;48.816;44.624;2022-08-21T08:18:01;101503;;;30.8;19.5
49583;BME280;36329;48.816;44.624;2022-08-21T08:21:09;101498;;;30;19.8
49583;BME280;36329;48.816;44.624;2022-08-21T08:24:11;101505;;;30.7;20
49583;BME280;36329;48.816;44.624;2022-08-21T08:27:18;101481;;;31;19.7
49583;BME280;36329;48.816;44.624;2022-08-21T08:30:21;101478;;;31.3;18.8
49583;BME280;36329;48.816;44.624;2022-08-21T08:33:28;101483;;;31.2;18.9
49583;BME280;36329;48.816;44.624;2022-08-21T08:36:33;101470;;;31.6;18.9
49583;BME280;36329;48.816;44.624;2022-08-21T08:39:35;101467;;;31.2;19.2
49583;BME280;36329;48.816;44.624;2022-08-21T08:42:45;101469;;;31.1;19.5
49583;BME280;36329;48.816;44.624;2022-08-21T08:45:50;101465;;;31.7;19
49583;BME280;36329;48.816;44.624;2022-08-21T08:48:55;101461;;;31.6;19.5
49583;BME280;36329;48.816;44.624;2022-08-21T08:52:02;101473;;;31.3;19.4
49583;BME280;36329;48.816;44.624;2022-08-21T08:55:08;101466;;;31.4;18.7
49583;BME280;36329;48.816;44.624;2022-08-21T08:58:16;101461;;;31;19.2
49583;BME280;36329;48.816;44.624;2022-08-21T09:01:20;101458;;;31.3;19.4
49583;BME280;36329;48.816;44.624;2022-08-21T09:04:25;101446;;;31.8;19.3
49583;BME280;36329;48.816;44.624;2022-08-21T09:07:39;101446;;;32;19.1
49583;BME280;36329;48.816;44.624;2022-08-21T09:10:49;101437;;;31.6;19.5
49583;BME280;36329;48.816;44.624;2022-08-21T09:14:05;101454;;;31.4;19.9
49583;BME280;36329;48.816;44.624;2022-08-21T09:17:35;101449;;;31;19.8
49583;BME280;36329;48.816;44.624;2022-08-21T09:20:57;101446;;;31.3;19.2
49583;BME280;36329;48.816;44.624;2022-08-21T09:24:18;101455;;;31.3;19.5
49583;BME280;36329;48.816;44.624;2022-08-21T09:27:34;101445;;;31.3;19.3
49583;BME280;36329;48.816;44.624;2022-08-21T09:30:35;101436;;;31.2;19
49583;BME280;36329;48.816;44.624;2022-08-21T09:33:37;101436;;;31.3;18.8
49583;BME280;36329;48.816;44.624;2022-08-21T09:36:48;101420;;;31.6;18.3
49583;BME280;36329;48.816;44.624;2022-08-21T09:39:50;101427;;;32.2;18.7
49583;BME280;36329;48.816;44.624;2022-08-21T09:42:56;101430;;;32.2;18.5
49583;BME280;36329;48.816;44.624;2022-08-21T09:46:05;101414;;;32.1;18.6
49583;BME280;36329;48.816;44.624;2022-08-21T09:49:08;101410;;;32.3;18.3
49583;BME280;36329;48.816;44.624;2022-08-21T09:52:16;101414;;;32;18.5
49583;BME280;36329;48.816;44.624;2022-08-21T09:55:33;101410;;;32.1;19.4
49583;BME280;36329;48.816;44.624;2022-08-21T09:58:40;101410;;;32;19.2
49583;BME280;36329;48.816;44.624;2022-08-21T10:01:49;101412;;;32.3;18.7
49583;BME280;36329;48.816;44.624;2022-08-21T10:04:54;101402;;;32.3;18.2
49583;BME280;36329;48.816;44.624;2022-08-21T10:08:03;101386;;;32.4;18.4
49583;BME280;36329;48.816;44.624;2022-08-21T10:11:16;101415;;;31.8;19.9
49583;BME280;36329;48.816;44.624;2022-08-21T10:14:24;101391;;;31.4;20.3
49583;BME280;36329;48.816;44.624;2022-08-21T10:17:39;101385;;;31.2;20.1
49583;BME280;36329;48.816;44.624;2022-08-21T10:20:47;101382;;;31.4;20.3
49583;BME280;36329;48.816;44.624;2022-08-21T10:23:59;101379;;;31.5;20.2
49583;BME280;36329;48.816;44.624;2022-08-21T10:27:16;101380;;;31.9;19.8
49583;BME280;36329;48.816;44.624;2022-08-21T10:30:34;101377;;;31.8;19.4
49583;BME280;36329;48.816;44.624;2022-08-21T10:33:44;101386;;;31.9;19.7
49583;BME280;36329;48.816;44.624;2022-08-21T10:37:01;101364;;;31.9;19.8
49583;BME280;36329;48.816;44.624;2022-08-21T10:40:18;101387;;;32;19.7
49583;BME280;36329;48.816;44.624;2022-08-21T10:43:37;101386;;;31.7;20.3
49583;BME280;36329;48.816;44.624;2022-08-21T10:46:50;101366;;;31.4;20.4
49583;BME280;36329;48.816;44.624;2022-08-21T10:49:59;101370;;;31.8;19.8
49583;BME280;36329;48.816;44.624;2022-08-21T10:53:11;101362;;;31.8;20.4
49583;BME280;36329;48.816;44.624;2022-08-21T10:56:20;101368;;;31.3;21.2
49583;BME280;36329;48.816;44.624;2022-08-21T10:59:28;101352;;;31.4;21
49583;BME280;36329;48.816;44.624;2022-08-21T11:02:37;101363;;;31.7;20.4
49583;BME280;36329;48.816;44.624;2022-08-21T11:05:44;101354;;;31.7;20.6
49583;BME280;36329;48.816;44.624;2022-08-21T11:08:51;101345;;;31.5;20.5
49583;BME280;36329;48.816;44.624;2022-08-21T11:12:05;101362;;;31.6;20.8
49583;BME280;36329;48.816;44.624;2022-08-21T11:15:26;101347;;;31.6;20.6
49583;BME280;36329;48.816;44.624;2022-08-21T11:18:36;101336;;;31.4;21.6
49583;BME280;36329;48.816;44.624;2022-08-21T11:21:43;101328;;;31.2;20.9
49583;BME280;36329;48.816;44.624;2022-08-21T11:24:52;101337;;;31.4;21.2
49583;BME280;36329;48.816;44.624;2022-08-21T11:28:03;101355;;;31.3;21.8
49583;BME280;36329;48.816;44.624;2022-08-21T11:31:15;101325;;;31.3;21.7
49583;BME280;36329;48.816;44.624;2022-08-21T11:34:27;101328;;;31.4;21.1
49583;BME280;36329;48.816;44.624;2022-08-21T11:37:45;101325;;;31.5;21.6
49583;BME280;36329;48.816;44.624;2022-08-21T11:41:01;101320;;;31.5;22
49583;BME280;36329;48.816;44.624;2022-08-21T11:44:10;101321;;;31.5;21.9
49583;BME280;36329;48.816;44.624;2022-08-21T11:47:19;101305;;;31.5;22
49583;BME280;36329;48.816;44.624;2022-08-21T11:50:31;101320;;;31.6;22.2
49583;BME280;36329;48.816;44.624;2022-08-21T11:53:38;101312;;;31.6;22.3
49583;BME280;36329;48.816;44.624;2022-08-21T11:56:45;101321;;;31.4;22.8
49583;BME280;36329;48.816;44.624;2022-08-21T12:00:00;101324;;;31.3;23.1
49583;BME280;36329;48.816;44.624;2022-08-21T12:03:13;101307;;;30.9;22.7
49583;BME280;36329;48.816;44.624;2022-08-21T12:06:29;101328;;;30.8;22.6
49583;BME280;36329;48.816;44.624;2022-08-21T12:09:34;101312;;;30.6;23.1
49583;BME280;36329;48.816;44.624;2022-08-21T12:12:44;101315;;;30.7;22.6
49583;BME280;36329;48.816;44.624;2022-08-21T12:15:46;101309;;;30.8;23.2
49583;BME280;36329;48.816;44.624;2022-08-21T12:18:48;101310;;;30.6;23.7
49583;BME280;36329;48.816;44.624;2022-08-21T12:21:57;101314;;;30.7;23.6
49583;BME280;36329;48.816;44.624;2022-08-21T12:25:05;101325;;;30.9;24.1
49583;BME280;36329;48.816;44.624;2022-08-21T12:28:11;101301;;;30.6;24.2
49583;BME280;36329;48.816;44.624;2022-08-21T12:31:17;101311;;;30.4;24
49583;BME280;36329;48.816;44.624;2022-08-21T12:34:23;101319;;;30.4;24
49583;BME280;36329;48.816;44.624;2022-08-21T12:37:30;101326;;;30.4;24.6
49583;BME280;36329;48.816;44.624;2022-08-21T12:40:40;101317;;;30.2;24.7
49583;BME280;36329;48.816;44.624;2022-08-21T12:43:47;101304;;;30.2;25.2
49583;BME280;36329;48.816;44.624;2022-08-21T12:46:59;101310;;;30.1;25.8
49583;BME280;36329;48.816;44.624;2022-08-21T12:50:08;101288;;;30.1;25.5
49583;BME280;36329;48.816;44.624;2022-08-21T12:53:25;101304;;;30;25.8
49583;BME280;36329;48.816;44.624;2022-08-21T12:56:31;101303;;;30;25.6
49583;BME280;36329;48.816;44.624;2022-08-21T12:59:39;101302;;;30;25.7
49583;BME280;36329;48.816;44.624;2022-08-21T13:02:45;101310;;;29.9;26.2
49583;BME280;36329;48.816;44.624;2022-08-21T13:05:50;101301;;;30;26.5
49583;BME280;36329;48.816;44.624;2022-08-21T13:08:57;101292;;;30;26.2
49583;BME280;36329;48.816;44.624;2022-08-21T13:12:18;101298;;;29.9;26.3
49583;BME280;36329;48.816;44.624;2022-08-21T13:15:24;101293;;;29.8;26
49583;BME280;36329;48.816;44.624;2022-08-21T13:18:30;101296;;;29.8;26.1
49583;BME280;36329;48.816;44.624;2022-08-21T13:21:34;101299;;;29.8;26.6
49583;BME280;36329;48.816;44.624;2022-08-21T13:24:37;101295;;;29.9;26.5
49583;BME280;36329;48.816;44.624;2022-08-21T13:27:39;101294;;;29.9;26.6
49583;BME280;36329;48.816;44.624;2022-08-21T13:30:44;101305;;;29.8;26.8
49583;BME280;36329;48.816;44.624;2022-08-21T13:33:53;101291;;;29.8;27
49583;BME280;36329;48.816;44.624;2022-08-21T13:36:59;101294;;;29.8;26.7
49583;BME280;36329;48.816;44.624;2022-08-21T13:40:02;101296;;;29.8;27
49583;BME280;36329;48.816;44.624;2022-08-21T13:43:03;101286;;;29.9;27.1
49583;BME280;36329;48.816;44.624;2022-08-21T13:46:12;101294;;;29.9;27.1
49583;BME280;36329;48.816;44.624;2022-08-21T13:49:17;101284;;;29.9;26.9
49583;BME280;36329;48.816;44.624;2022-08-21T13:52:22;101289;;;30;26.1
49583;BME280;36329;48.816;44.624;2022-08-21T13:55:39;101287;;;30;25.8
49583;BME280;36329;48.816;44.624;2022-08-21T13:58:48;101291;;;30;26.2
49583;BME280;36329;48.816;44.624;2022-08-21T14:01:52;101285;;;29.9;26.2
49583;BME280;36329;48.816;44.624;2022-08-21T14:04:57;101284;;;29.9;26.1
49583;BME280;36329;48.816;44.624;2022-08-21T14:08:03;101300;;;29.9;26.3
49583;BME280;36329;48.816;44.624;2022-08-21T14:11:10;101286;;;29.9;26.2
49583;BME280;36329;48.816;44.624;2022-08-21T14:14:23;101287;;;29.7;26
49583;BME280;36329;48.816;44.624;2022-08-21T14:17:34;101291;;;29.6;26.7
49583;BME280;36329;48.816;44.624;2022-08-21T14:20:36;101287;;;29.5;26.4
49583;BME280;36329;48.816;44.624;2022-08-21T14:23:38;101291;;;29.5;26.5
49583;BME280;36329;48.816;44.624;2022-08-21T14:26:44;101285;;;29.5;26.1
49583;BME280;36329;48.816;44.624;2022-08-21T14:29:47;101296;;;29.4;26.9
49583;BME280;36329;48.816;44.624;2022-08-21T14:32:49;101295;;;29.4;26.8
49583;BME280;36329;48.816;44.624;2022-08-21T14:35:51;101294;;;29.5;26.5
49583;BME280;36329;48.816;44.624;2022-08-21T14:38:53;101299;;;29.6;26.8
49583;BME280;36329;48.816;44.624;2022-08-21T14:41:54;101299;;;29.7;26.4
49583;BME280;36329;48.816;44.624;2022-08-21T14:45:01;101299;;;29.6;26.4
49583;BME280;36329;48.816;44.624;2022-08-21T14:48:04;101312;;;29.4;26.8
49583;BME280;36329;48.816;44.624;2022-08-21T14:51:06;101301;;;29.3;26.7
49583;BME280;36329;48.816;44.624;2022-08-21T14:54:07;101303;;;29.2;27
49583;BME280;36329;48.816;44.624;2022-08-21T14:57:19;101307;;;29.2;27
49583;BME280;36329;48.816;44.624;2022-08-21T15:00:25;101306;;;29.1;27.2
49583;BME280;36329;48.816;44.624;2022-08-21T15:03:26;101317;;;29.1;26.8
49583;BME280;36329;48.816;44.624;2022-08-21T15:06:39;101317;;;29;27.2
49583;BME280;36329;48.816;44.624;2022-08-21T15:09:45;101312;;;29;27.5
49583;BME280;36329;48.816;44.624;2022-08-21T15:12:47;101332;;;28.9;27.5
49583;BME280;36329;48.816;44.624;2022-08-21T15:15:54;101310;;;28.9;27.9
49583;BME280;36329;48.816;44.624;2022-08-21T15:18:57;101328;;;28.8;28
49583;BME280;36329;48.816;44.624;2022-08-21T15:21:58;101325;;;28.8;27.9
49583;BME280;36329;48.816;44.624;2022-08-21T15:25:00;101323;;;28.8;28
49583;BME280;36329;48.816;44.624;2022-08-21T15:28:03;101333;;;28.8;27.8
49583;BME280;36329;48.816;44.624;2022-08-21T15:31:11;101323;;;28.7;27.8
49583;BME280;36329;48.816;44.624;2022-08-21T15:34:13;101326;;;28.7;27.8
49583;BME280;36329;48.816;44.624;2022-08-21T15:37:14;101329;;;28.6;27.9
49583;BME280;36329;48.816;44.624;2022-08-21T15:40:16;101328;;;28.5;28.2
49583;BME280;36329;48.816;44.624;2022-08-21T15:43:23;101335;;;28.5;28.1
49583;BME280;36329;48.816;44.624;2022-08-21T15:46:26;101336;;;28.5;28.2
49583;BME280;36329;48.816;44.624;2022-08-21T15:49:27;101325;;;28.4;28.4
49583;BME280;36329;48.816;44.624;2022-08-21T15:52:29;101329;;;28.4;28.4
49583;BME280;36329;48.816;44.624;2022-08-21T15:55:32;101336;;;28.3;28.6
49583;BME280;36329;48.816;44.624;2022-08-21T15:58:49;101336;;;28.3;28.5
49583;BME280;36329;48.816;44.624;2022-08-21T16:01:52;101350;;;28.2;28.7
49583;BME280;36329;48.816;44.624;2022-08-21T16:04:53;101342;;;28.2;28.8
49583;BME280;36329;48.816;44.624;2022-08-21T16:08:00;101355;;;28.1;29
49583;BME280;36329;48.816;44.624;2022-08-21T16:11:09;101345;;;28;29
49583;BME280;36329;48.816;44.624;2022-08-21T16:14:12;101345;;;28;29.1
49583;BME280;36329;48.816;44.624;2022-08-21T16:17:15;101352;;;28;29.4
49583;BME280;36329;48.816;44.624;2022-08-21T16:20:20;101347;;;27.9;29.7
49583;BME280;36329;48.816;44.624;2022-08-21T16:23:24;101357;;;27.8;29.1
49583;BME280;36329;48.816;44.624;2022-08-21T16:26:26;101354;;;27.8;29.8
49583;BME280;36329;48.816;44.624;2022-08-21T16:29:33;101345;;;27.7;29.9
49583;BME280;36329;48.816;44.624;2022-08-21T16:32:35;101353;;;27.6;30.2
49583;BME280;36329;48.816;44.624;2022-08-21T16:35:37;101359;;;27.6;30.3
49583;BME280;36329;48.816;44.624;2022-08-21T16:38:39;101362;;;27.5;30.4
49583;BME280;36329;48.816;44.624;2022-08-21T16:41:41;101366;;;27.5;30.4
49583;BME280;36329;48.816;44.624;2022-08-21T16:44:42;101363;;;27.5;30.6
49583;BME280;36329;48.816;44.624;2022-08-21T16:47:49;101364;;;27.4;30.6
49583;BME280;36329;48.816;44.624;2022-08-21T16:50:57;101368;;;27.3;30.8
49583;BME280;36329;48.816;44.624;2022-08-21T16:53:59;101364;;;27.3;30.6
49583;BME280;36329;48.816;44.624;2022-08-21T16:57:00;101368;;;27.3;30.8
49583;BME280;36329;48.816;44.624;2022-08-21T17:00:09;101375;;;27.2;30.8
49583;BME280;36329;48.816;44.624;2022-08-21T17:03:13;101384;;;27.2;30.7
49583;BME280;36329;48.816;44.624;2022-08-21T17:06:17;101385;;;27.1;30.8
49583;BME280;36329;48.816;44.624;2022-08-21T17:09:24;101372;;;27;31.1